sensor_id;sensor_type;location;lat;lon;timestamp;pressure;altitude;pressure_sealevel;temperature;humidity
40838;BME280;29632;49.168;9.848;2022-08-19T00:01:29;96313.53;;;27.36;40.67
40838;BME280;29632;49.168;9.848;2022-08-19T00:04:02;96312.44;;;27.32;40.91
40838;BME280;29632;49.168;9.848;2022-08-19T00:06:29;96310.03;;;27.30;40.92
40838;BME280;29632;49.168;9.848;2022-08-19T00:08:56;96302.53;;;27.27;40.87
40838;BME280;29632;49.168;9.848;2022-08-19T00:11:23;96307.88;;;27.27;40.75
40838;BME280;29632;49.168;9.848;2022-08-19T00:13:49;96298.25;;;27.26;41.05
40838;BME280;29632;49.168;9.848;2022-08-19T00:16:17;96304.38;;;27.27;41.14
40838;BME280;29632;49.168;9.848;2022-08-19T00:18:47;96300.38;;;27.24;41.26
40838;BME280;29632;49.168;9.848;2022-08-19T00:21:13;96306.78;;;27.23;41.26
40838;BME280;29632;49.168;9.848;2022-08-19T00:23:40;96308.13;;;27.21;41.24
40838;BME280;29632;49.168;9.848;2022-08-19T00:26:08;96318.50;;;27.17;41.37
40838;BME280;29632;49.168;9.848;2022-08-19T00:28:34;96327.56;;;27.11;41.50
40838;BME280;29632;49.168;9.848;2022-08-19T00:31:05;96334.78;;;27.05;41.67
40838;BME280;29632;49.168;9.848;2022-08-19T00:33:32;96337.16;;;27.02;41.66
40838;BME280;29632;49.168;9.848;2022-08-19T00:36:01;96333.91;;;27.00;41.50
40838;BME280;29632;49.168;9.848;2022-08-19T00:38:27;96326.97;;;26.99;41.45
40838;BME280;29632;49.168;9.848;2022-08-19T00:40:54;96319.75;;;26.99;41.69
40838;BME280;29632;49.168;9.848;2022-08-19T00:43:23;96319.22;;;26.97;41.71
40838;BME280;29632;49.168;9.848;2022-08-19T00:45:49;96322.09;;;26.85;41.69
40838;BME280;29632;49.168;9.848;2022-08-19T00:48:17;96330.94;;;26.86;41.95
40838;BME280;29632;49.168;9.848;2022-08-19T00:50:44;96310.63;;;26.85;41.72
40838;BME280;29632;49.168;9.848;2022-08-19T00:53:13;96302.84;;;26.83;42.00
40838;BME280;29632;49.168;9.848;2022-08-19T00:55:40;96293.22;;;26.82;41.86
40838;BME280;29632;49.168;9.848;2022-08-19T00:58:13;96293.22;;;26.82;42.12
40838;BME280;29632;49.168;9.848;2022-08-19T01:00:39;96290.56;;;26.82;41.82
40838;BME280;29632;49.168;9.848;2022-08-19T01:03:08;96294.31;;;26.81;42.06
40838;BME280;29632;49.168;9.848;2022-08-19T01:05:35;96308.16;;;26.78;41.85
40838;BME280;29632;49.168;9.848;2022-08-19T01:08:04;96314.59;;;26.77;42.10
40838;BME280;29632;49.168;9.848;2022-08-19T01:10:50;96324.16;;;26.73;42.37
40838;BME280;29632;49.168;9.848;2022-08-19T01:13:23;96334.31;;;26.71;42.25
40838;BME280;29632;49.168;9.848;2022-08-19T01:16:00;96323.84;;;26.64;42.36
40838;BME280;29632;49.168;9.848;2022-08-19T01:18:28;96327.28;;;26.60;42.28
40838;BME280;29632;49.168;9.848;2022-08-19T01:20:58;96333.88;;;26.52;42.63
40838;BME280;29632;49.168;9.848;2022-08-19T01:23:24;96334.97;;;26.51;42.31
40838;BME280;29632;49.168;9.848;2022-08-19T01:26:15;96318.66;;;26.52;42.53
40838;BME280;29632;49.168;9.848;2022-08-19T01:28:43;96311.47;;;26.53;42.47
40838;BME280;29632;49.168;9.848;2022-08-19T01:31:19;96309.34;;;26.55;42.44
40838;BME280;29632;49.168;9.848;2022-08-19T01:33:47;96310.94;;;26.56;42.60
40838;BME280;29632;49.168;9.848;2022-08-19T01:36:24;96304.78;;;26.55;42.54
40838;BME280;29632;49.168;9.848;2022-08-19T01:38:51;96306.13;;;26.53;42.53
40838;BME280;29632;49.168;9.848;2022-08-19T01:41:18;96309.06;;;26.51;42.48
40838;BME280;29632;49.168;9.848;2022-08-19T01:43:44;96306.63;;;26.50;42.40
40838;BME280;29632;49.168;9.848;2022-08-19T01:46:11;96310.06;;;26.45;42.46
40838;BME280;29632;49.168;9.848;2022-08-19T01:48:40;96307.38;;;26.40;42.51
40838;BME280;29632;49.168;9.848;2022-08-19T01:51:08;96309.75;;;26.36;42.33
40838;BME280;29632;49.168;9.848;2022-08-19T01:53:35;96319.06;;;26.34;42.64
40838;BME280;29632;49.168;9.848;2022-08-19T01:56:02;96315.34;;;26.35;42.50
40838;BME280;29632;49.168;9.848;2022-08-19T01:58:38;96320.66;;;26.35;42.83
40838;BME280;29632;49.168;9.848;2022-08-19T02:01:07;96314.78;;;26.33;42.73
40838;BME280;29632;49.168;9.848;2022-08-19T02:03:34;96312.13;;;26.33;42.59
40838;BME280;29632;49.168;9.848;2022-08-19T02:06:03;96309.44;;;26.33;42.47
40838;BME280;29632;49.168;9.848;2022-08-19T02:08:32;96309.44;;;26.33;42.67
40838;BME280;29632;49.168;9.848;2022-08-19T02:10:58;96309.97;;;26.30;42.59
40838;BME280;29632;49.168;9.848;2022-08-19T02:13:26;96315.31;;;26.30;42.85
40838;BME280;29632;49.168;9.848;2022-08-19T02:15:51;96321.72;;;26.29;42.72
40838;BME280;29632;49.168;9.848;2022-08-19T02:18:17;96317.41;;;26.28;42.96
40838;BME280;29632;49.168;9.848;2022-08-19T02:20:44;96322.75;;;26.28;42.65
40838;BME280;29632;49.168;9.848;2022-08-19T02:23:11;96327.03;;;26.29;42.58
40838;BME280;29632;49.168;9.848;2022-08-19T02:25:38;96320.91;;;26.28;42.59
40838;BME280;29632;49.168;9.848;2022-08-19T02:28:05;96323.00;;;26.26;42.99
40838;BME280;29632;49.168;9.848;2022-08-19T02:30:32;96319.00;;;26.24;42.74
40838;BME280;29632;49.168;9.848;2022-08-19T02:32:57;96328.59;;;26.19;42.88
40838;BME280;29632;49.168;9.848;2022-08-19T02:35:24;96331.75;;;26.16;42.95
40838;BME280;29632;49.168;9.848;2022-08-19T02:37:50;96346.66;;;26.12;43.09
40838;BME280;29632;49.168;9.848;2022-08-19T02:40:35;96349.00;;;26.09;43.02
40838;BME280;29632;49.168;9.848;2022-08-19T02:43:06;96354.88;;;26.06;43.08
40838;BME280;29632;49.168;9.848;2022-08-19T02:45:35;96353.25;;;26.05;42.97
40838;BME280;29632;49.168;9.848;2022-08-19T02:48:02;96353.50;;;26.03;43.21
40838;BME280;29632;49.168;9.848;2022-08-19T02:50:28;96344.16;;;26.00;43.06
40838;BME280;29632;49.168;9.848;2022-08-19T02:52:54;96341.75;;;25.99;43.24
40838;BME280;29632;49.168;9.848;2022-08-19T02:55:20;96329.44;;;25.98;43.19
40838;BME280;29632;49.168;9.848;2022-08-19T02:57:46;96335.59;;;25.98;43.30
40838;BME280;29632;49.168;9.848;2022-08-19T03:00:13;96343.31;;;25.95;43.32
40838;BME280;29632;49.168;9.848;2022-08-19T03:02:40;96354.19;;;25.93;43.22
40838;BME280;29632;49.168;9.848;2022-08-19T03:05:08;96350.16;;;25.91;43.22
40838;BME280;29632;49.168;9.848;2022-08-19T03:07:36;96351.22;;;25.90;43.50
40838;BME280;29632;49.168;9.848;2022-08-19T03:10:03;96343.22;;;25.90;43.43
40838;BME280;29632;49.168;9.848;2022-08-19T03:12:29;96339.75;;;25.89;43.29
40838;BME280;29632;49.168;9.848;2022-08-19T03:14:55;96341.34;;;25.90;43.35
40838;BME280;29632;49.168;9.848;2022-08-19T03:17:21;96334.16;;;25.91;43.29
40838;BME280;29632;49.168;9.848;2022-08-19T03:19:47;96338.44;;;25.92;43.41
40838;BME280;29632;49.168;9.848;2022-08-19T03:22:13;96335.22;;;25.90;43.44
40838;BME280;29632;49.168;9.848;2022-08-19T03:24:39;96342.41;;;25.89;43.26
40838;BME280;29632;49.168;9.848;2022-08-19T03:27:05;96344.28;;;25.89;43.48
40838;BME280;29632;49.168;9.848;2022-08-19T03:29:32;96339.97;;;25.88;43.55
40838;BME280;29632;49.168;9.848;2022-08-19T03:32:04;96329.59;;;25.86;43.39
40838;BME280;29632;49.168;9.848;2022-08-19T03:34:32;96325.31;;;25.85;43.46
40838;BME280;29632;49.168;9.848;2022-08-19T03:37:04;96326.88;;;25.81;43.84
40838;BME280;29632;49.168;9.848;2022-08-19T03:39:31;96326.59;;;25.82;43.43
40838;BME280;29632;49.168;9.848;2022-08-19T03:41:56;96324.75;;;25.83;43.40
40838;BME280;29632;49.168;9.848;2022-08-19T03:44:23;96316.50;;;25.85;43.50
40838;BME280;29632;49.168;9.848;2022-08-19T03:46:53;96310.09;;;25.86;43.43
40838;BME280;29632;49.168;9.848;2022-08-19T03:49:21;96305.84;;;25.85;43.54
40838;BME280;29632;49.168;9.848;2022-08-19T03:51:49;96306.09;;;25.83;43.75
40838;BME280;29632;49.168;9.848;2022-08-19T03:54:19;96318.06;;;25.80;43.51
40838;BME280;29632;49.168;9.848;2022-08-19T03:56:47;96320.97;;;25.79;43.53
40838;BME280;29632;49.168;9.848;2022-08-19T03:59:25;96324.72;;;25.78;43.63
40838;BME280;29632;49.168;9.848;2022-08-19T04:01:54;96324.47;;;25.79;43.58
40838;BME280;29632;49.168;9.848;2022-08-19T04:04:20;96325.25;;;25.80;43.61
40838;BME280;29632;49.168;9.848;2022-08-19T04:06:47;96337.25;;;25.77;43.72
40838;BME280;29632;49.168;9.848;2022-08-19T04:09:13;96346.53;;;25.75;43.66
40838;BME280;29632;49.168;9.848;2022-08-19T04:11:52;96355.28;;;25.70;43.75
40838;BME280;29632;49.168;9.848;2022-08-19T04:14:23;96363.28;;;25.70;43.95
40838;BME280;29632;49.168;9.848;2022-08-19T04:16:51;96359.81;;;25.70;44.05
40838;BME280;29632;49.168;9.848;2022-08-19T04:19:18;96360.56;;;25.65;44.00
40838;BME280;29632;49.168;9.848;2022-08-19T04:21:46;96354.13;;;25.61;44.19
40838;BME280;29632;49.168;9.848;2022-08-19T04:24:13;96351.94;;;25.58;44.28
40838;BME280;29632;49.168;9.848;2022-08-19T04:26:39;96347.13;;;25.55;44.27
40838;BME280;29632;49.168;9.848;2022-08-19T04:29:10;96347.38;;;25.53;44.18
40838;BME280;29632;49.168;9.848;2022-08-19T04:31:36;96340.13;;;25.49;44.07
40838;BME280;29632;49.168;9.848;2022-08-19T04:34:09;96336.13;;;25.46;44.69
40838;BME280;29632;49.168;9.848;2022-08-19T04:36:41;96337.94;;;25.46;44.31
40838;BME280;29632;49.168;9.848;2022-08-19T04:39:16;96332.88;;;25.44;44.52
40838;BME280;29632;49.168;9.848;2022-08-19T04:41:43;96336.84;;;25.41;44.37
40838;BME280;29632;49.168;9.848;2022-08-19T04:44:30;96327.47;;;25.39;44.54
40838;BME280;29632;49.168;9.848;2022-08-19T04:46:56;96338.97;;;25.39;44.55
40838;BME280;29632;49.168;9.848;2022-08-19T04:49:23;96329.09;;;25.40;44.63
40838;BME280;29632;49.168;9.848;2022-08-19T04:51:52;96339.53;;;25.41;44.44
40838;BME280;29632;49.168;9.848;2022-08-19T04:54:20;96337.41;;;25.43;44.53
40838;BME280;29632;49.168;9.848;2022-08-19T04:56:49;96339.03;;;25.44;44.80
40838;BME280;29632;49.168;9.848;2022-08-19T04:59:16;96334.50;;;25.45;44.44
40838;BME280;29632;49.168;9.848;2022-08-19T05:01:44;96346.78;;;25.46;44.39
40838;BME280;29632;49.168;9.848;2022-08-19T05:04:19;96359.28;;;25.46;44.57
40838;BME280;29632;49.168;9.848;2022-08-19T05:06:47;96356.38;;;25.47;44.85
40838;BME280;29632;49.168;9.848;2022-08-19T05:09:15;96357.75;;;25.50;44.79
40838;BME280;29632;49.168;9.848;2022-08-19T05:11:43;96363.88;;;25.50;44.64
40838;BME280;29632;49.168;9.848;2022-08-19T05:14:11;96371.63;;;25.52;44.50
40838;BME280;29632;49.168;9.848;2022-08-19T05:16:39;96375.09;;;25.52;44.49
40838;BME280;29632;49.168;9.848;2022-08-19T05:19:05;96380.66;;;25.51;44.92
40838;BME280;29632;49.168;9.848;2022-08-19T05:21:50;96381.75;;;25.50;44.75
40838;BME280;29632;49.168;9.848;2022-08-19T05:24:34;96391.31;;;25.51;44.73
40838;BME280;29632;49.168;9.848;2022-08-19T05:27:01;96395.38;;;25.53;44.50
40838;BME280;29632;49.168;9.848;2022-08-19T05:29:29;96397.78;;;25.55;44.62
40838;BME280;29632;49.168;9.848;2022-08-19T05:31:57;96405.28;;;25.58;44.42
40838;BME280;29632;49.168;9.848;2022-08-19T05:34:25;96406.91;;;25.59;44.53
40838;BME280;29632;49.168;9.848;2022-08-19T05:36:55;96408.53;;;25.60;44.91
40838;BME280;29632;49.168;9.848;2022-08-19T05:39:26;96406.66;;;25.60;44.59
40838;BME280;29632;49.168;9.848;2022-08-19T05:41:56;96414.41;;;25.62;44.60
40838;BME280;29632;49.168;9.848;2022-08-19T05:44:30;96415.19;;;25.62;44.52
40838;BME280;29632;49.168;9.848;2022-08-19T05:46:58;96412.84;;;25.66;44.76
40838;BME280;29632;49.168;9.848;2022-08-19T05:49:25;96420.03;;;25.66;44.96
40838;BME280;29632;49.168;9.848;2022-08-19T05:51:53;96416.31;;;25.67;44.88
40838;BME280;29632;49.168;9.848;2022-08-19T05:54:21;96425.13;;;25.67;44.82
40838;BME280;29632;49.168;9.848;2022-08-19T05:56:50;96426.16;;;25.66;45.05
40838;BME280;29632;49.168;9.848;2022-08-19T05:59:17;96425.13;;;25.67;45.01
40838;BME280;29632;49.168;9.848;2022-08-19T06:01:48;96427.78;;;25.67;44.65
40838;BME280;29632;49.168;9.848;2022-08-19T06:04:19;96430.22;;;25.69;44.90
40838;BME280;29632;49.168;9.848;2022-08-19T06:06:47;96426.72;;;25.68;44.91
40838;BME280;29632;49.168;9.848;2022-08-19T06:09:13;96425.94;;;25.68;44.92
40838;BME280;29632;49.168;9.848;2022-08-19T06:11:44;96435.22;;;25.65;44.98
40838;BME280;29632;49.168;9.848;2022-08-19T06:14:18;96432.81;;;25.63;45.12
40838;BME280;29632;49.168;9.848;2022-08-19T06:16:45;96442.97;;;25.67;45.04
40838;BME280;29632;49.168;9.848;2022-08-19T06:19:17;96445.09;;;25.65;44.99
40838;BME280;29632;49.168;9.848;2022-08-19T06:21:47;96441.94;;;25.68;45.00
40838;BME280;29632;49.168;9.848;2022-08-19T06:24:17;96438.22;;;25.69;44.85
40838;BME280;29632;49.168;9.848;2022-08-19T06:26:45;96435.28;;;25.70;44.86
40838;BME280;29632;49.168;9.848;2022-08-19T06:29:13;96427.56;;;25.69;44.92
40838;BME280;29632;49.168;9.848;2022-08-19T06:31:49;96422.47;;;25.67;44.95
40838;BME280;29632;49.168;9.848;2022-08-19T06:34:16;96416.53;;;25.65;45.25
40838;BME280;29632;49.168;9.848;2022-08-19T06:36:47;96413.31;;;25.63;45.35
40838;BME280;29632;49.168;9.848;2022-08-19T06:39:16;96407.63;;;25.54;45.20
40838;BME280;29632;49.168;9.848;2022-08-19T06:41:46;96399.38;;;25.56;45.15
40838;BME280;29632;49.168;9.848;2022-08-19T06:44:14;96404.72;;;25.56;45.21
40838;BME280;29632;49.168;9.848;2022-08-19T06:46:41;96406.34;;;25.57;45.14
40838;BME280;29632;49.168;9.848;2022-08-19T06:49:08;96410.13;;;25.61;45.61
40838;BME280;29632;49.168;9.848;2022-08-19T06:51:43;96402.91;;;25.61;45.24
40838;BME280;29632;49.168;9.848;2022-08-19T06:54:10;96403.22;;;25.65;45.58
40838;BME280;29632;49.168;9.848;2022-08-19T06:56:36;96402.19;;;25.66;45.16
40838;BME280;29632;49.168;9.848;2022-08-19T06:59:15;96416.00;;;25.63;45.22
40838;BME280;29632;49.168;9.848;2022-08-19T07:01:45;96428.28;;;25.64;45.57
40838;BME280;29632;49.168;9.848;2022-08-19T07:04:14;96439.00;;;25.69;45.19
40838;BME280;29632;49.168;9.848;2022-08-19T07:06:42;96440.91;;;25.74;45.32
40838;BME280;29632;49.168;9.848;2022-08-19T07:09:13;96443.34;;;25.75;45.11
40838;BME280;29632;49.168;9.848;2022-08-19T07:11:45;96440.66;;;25.75;45.33
40838;BME280;29632;49.168;9.848;2022-08-19T07:14:11;96446.31;;;25.79;45.20
40838;BME280;29632;49.168;9.848;2022-08-19T07:16:38;96446.63;;;25.82;45.08
40838;BME280;29632;49.168;9.848;2022-08-19T07:19:03;96446.38;;;25.84;45.06
40838;BME280;29632;49.168;9.848;2022-08-19T07:21:29;96452.53;;;25.85;45.22
40838;BME280;29632;49.168;9.848;2022-08-19T07:23:56;96453.31;;;25.85;44.99
40838;BME280;29632;49.168;9.848;2022-08-19T07:26:29;96450.41;;;25.87;45.12
40838;BME280;29632;49.168;9.848;2022-08-19T07:28:56;96449.34;;;25.88;45.19
40838;BME280;29632;49.168;9.848;2022-08-19T07:31:25;96449.94;;;25.90;45.03
40838;BME280;29632;49.168;9.848;2022-08-19T07:33:53;96446.19;;;25.91;45.11
40838;BME280;29632;49.168;9.848;2022-08-19T07:36:24;96450.72;;;25.90;45.31
40838;BME280;29632;49.168;9.848;2022-08-19T07:38:52;96452.06;;;25.93;45.04
40838;BME280;29632;49.168;9.848;2022-08-19T07:41:24;96452.06;;;25.93;45.46
40838;BME280;29632;49.168;9.848;2022-08-19T07:43:51;96455.06;;;25.96;45.27
40838;BME280;29632;49.168;9.848;2022-08-19T07:46:19;96450.56;;;25.97;45.17
40838;BME280;29632;49.168;9.848;2022-08-19T07:48:47;96456.94;;;25.96;45.22
40838;BME280;29632;49.168;9.848;2022-08-19T07:51:18;96461.16;;;25.92;45.33
40838;BME280;29632;49.168;9.848;2022-08-19T07:53:45;96462.44;;;25.89;45.29
40838;BME280;29632;49.168;9.848;2022-08-19T07:56:13;96463.75;;;25.87;45.53
40838;BME280;29632;49.168;9.848;2022-08-19T07:58:42;96474.41;;;25.87;45.65
40838;BME280;29632;49.168;9.848;2022-08-19T08:01:14;96474.41;;;25.87;45.40
40838;BME280;29632;49.168;9.848;2022-08-19T08:03:40;96478.19;;;25.91;45.56
40838;BME280;29632;49.168;9.848;2022-08-19T08:06:25;96484.06;;;25.93;45.48
40838;BME280;29632;49.168;9.848;2022-08-19T08:09:11;96480.63;;;25.92;45.17
40838;BME280;29632;49.168;9.848;2022-08-19T08:11:44;96487.81;;;25.92;45.31
40838;BME280;29632;49.168;9.848;2022-08-19T08:14:17;96477.16;;;25.92;45.08
40838;BME280;29632;49.168;9.848;2022-08-19T08:16:43;96474.72;;;25.90;45.18
40838;BME280;29632;49.168;9.848;2022-08-19T08:19:11;96482.47;;;25.92;45.53
40838;BME280;29632;49.168;9.848;2022-08-19T08:21:40;96478.75;;;25.93;45.38
40838;BME280;29632;49.168;9.848;2022-08-19T08:24:07;96485.50;;;25.95;45.42
40838;BME280;29632;49.168;9.848;2022-08-19T08:26:32;96485.25;;;25.97;45.40
40838;BME280;29632;49.168;9.848;2022-08-19T08:28:58;96480.47;;;25.99;45.19
40838;BME280;29632;49.168;9.848;2022-08-19T08:31:24;96480.22;;;26.00;45.23
40838;BME280;29632;49.168;9.848;2022-08-19T08:33:50;96477.06;;;26.04;45.08
40838;BME280;29632;49.168;9.848;2022-08-19T08:36:17;96464.25;;;26.06;45.38
40838;BME280;29632;49.168;9.848;2022-08-19T08:38:44;96469.91;;;26.09;45.23
40838;BME280;29632;49.168;9.848;2022-08-19T08:45:02;96466.41;;;26.09;45.30
40838;BME280;29632;49.168;9.848;2022-08-19T08:47:36;96462.16;;;26.08;45.24
40838;BME280;29632;49.168;9.848;2022-08-19T08:50:21;96473.63;;;26.08;45.26
40838;BME280;29632;49.168;9.848;2022-08-19T08:52:53;96465.91;;;26.12;45.14
40838;BME280;29632;49.168;9.848;2022-08-19T08:55:25;96472.09;;;26.17;45.13
40838;BME280;29632;49.168;9.848;2022-08-19T08:58:04;96468.38;;;26.18;45.40
40838;BME280;29632;49.168;9.848;2022-08-19T09:00:39;96468.94;;;26.21;45.17
40838;BME280;29632;49.168;9.848;2022-08-19T09:03:27;96468.94;;;26.21;45.23
40838;BME280;29632;49.168;9.848;2022-08-19T09:06:04;96470.06;;;26.25;45.27
40838;BME280;29632;49.168;9.848;2022-08-19T09:09:04;96475.13;;;26.26;45.51
40838;BME280;29632;49.168;9.848;2022-08-19T09:14:48;96475.19;;;26.31;45.18
40838;BME280;29632;49.168;9.848;2022-08-19T09:17:16;96475.53;;;26.40;45.22
40838;BME280;29632;49.168;9.848;2022-08-19T09:22:38;96481.81;;;26.51;45.21
40838;BME280;29632;49.168;9.848;2022-08-19T09:25:06;96482.56;;;26.46;45.06
40838;BME280;29632;49.168;9.848;2022-08-19T09:27:33;96483.94;;;26.54;45.01
40838;BME280;29632;49.168;9.848;2022-08-19T09:29:59;96486.38;;;26.55;45.25
40838;BME280;29632;49.168;9.848;2022-08-19T09:32:25;96479.72;;;26.58;45.21
40838;BME280;29632;49.168;9.848;2022-08-19T09:34:51;96485.88;;;26.59;45.09
40838;BME280;29632;49.168;9.848;2022-08-19T09:37:24;96490.97;;;26.60;45.28
40838;BME280;29632;49.168;9.848;2022-08-19T09:39:50;96487.00;;;26.63;45.11
40838;BME280;29632;49.168;9.848;2022-08-19T09:42:17;96485.69;;;26.65;45.05
40838;BME280;29632;49.168;9.848;2022-08-19T09:44:43;96488.13;;;26.67;44.93
40838;BME280;29632;49.168;9.848;2022-08-19T09:47:12;96489.16;;;26.66;44.92
40838;BME280;29632;49.168;9.848;2022-08-19T09:49:38;96488.38;;;26.65;45.07
40838;BME280;29632;49.168;9.848;2022-08-19T09:52:09;96488.13;;;26.67;44.95
40838;BME280;29632;49.168;9.848;2022-08-19T09:54:37;96491.88;;;26.71;45.02
40838;BME280;29632;49.168;9.848;2022-08-19T09:57:03;96493.75;;;26.70;45.07
40838;BME280;29632;49.168;9.848;2022-08-19T09:59:29;96493.75;;;26.70;45.05
40838;BME280;29632;49.168;9.848;2022-08-19T10:01:55;96496.16;;;26.72;45.38
40838;BME280;29632;49.168;9.848;2022-08-19T10:04:22;96496.16;;;26.72;45.52
40838;BME280;29632;49.168;9.848;2022-08-19T10:06:50;96491.06;;;26.70;45.93
40838;BME280;29632;49.168;9.848;2022-08-19T10:09:17;96494.28;;;26.72;45.97
40838;BME280;29632;49.168;9.848;2022-08-19T10:11:45;96490.53;;;26.73;46.01
40838;BME280;29632;49.168;9.848;2022-08-19T10:14:15;96489.50;;;26.74;46.19
40838;BME280;29632;49.168;9.848;2022-08-19T10:16:42;96492.97;;;26.75;46.32
40838;BME280;29632;49.168;9.848;2022-08-19T10:19:09;96497.25;;;26.76;46.58
40838;BME280;29632;49.168;9.848;2022-08-19T10:21:35;96491.91;;;26.76;46.58
40838;BME280;29632;49.168;9.848;2022-08-19T10:24:04;96482.53;;;26.73;46.77
40838;BME280;29632;49.168;9.848;2022-08-19T10:26:38;96491.06;;;26.70;46.84
40838;BME280;29632;49.168;9.848;2022-08-19T10:29:07;96491.88;;;26.71;46.93
40838;BME280;29632;49.168;9.848;2022-08-19T10:31:34;96489.47;;;26.69;46.94
40838;BME280;29632;49.168;9.848;2022-08-19T10:34:01;96491.88;;;26.71;47.31
40838;BME280;29632;49.168;9.848;2022-08-19T10:36:34;96490.00;;;26.71;47.37
40838;BME280;29632;49.168;9.848;2022-08-19T10:39:09;96484.41;;;26.73;47.49
40838;BME280;29632;49.168;9.848;2022-08-19T10:41:38;96483.09;;;26.75;47.34
40838;BME280;29632;49.168;9.848;2022-08-19T10:44:07;96483.09;;;26.75;47.46
40838;BME280;29632;49.168;9.848;2022-08-19T10:46:38;96483.91;;;26.76;47.47
40838;BME280;29632;49.168;9.848;2022-08-19T10:49:08;96481.53;;;26.80;47.43
40838;BME280;29632;49.168;9.848;2022-08-19T10:51:34;96474.59;;;26.84;47.35
40838;BME280;29632;49.168;9.848;2022-08-19T10:54:19;96480.78;;;26.84;47.51
40838;BME280;29632;49.168;9.848;2022-08-19T10:56:45;96482.63;;;26.84;47.73
40838;BME280;29632;49.168;9.848;2022-08-19T10:59:22;96483.16;;;26.81;47.92
40838;BME280;29632;49.168;9.848;2022-08-19T11:01:50;96478.06;;;26.79;47.80
40838;BME280;29632;49.168;9.848;2022-08-19T11:04:18;96473.78;;;26.78;47.83
40838;BME280;29632;49.168;9.848;2022-08-19T11:06:45;96478.56;;;26.76;47.50
40838;BME280;29632;49.168;9.848;2022-08-19T11:09:19;96474.03;;;26.77;47.87
40838;BME280;29632;49.168;9.848;2022-08-19T11:11:45;96482.31;;;26.80;47.72
40838;BME280;29632;49.168;9.848;2022-08-19T11:14:16;96473.78;;;26.78;47.77
40838;BME280;29632;49.168;9.848;2022-08-19T11:16:45;96475.34;;;26.74;47.70
40838;BME280;29632;49.168;9.848;2022-08-19T11:19:12;96485.75;;;26.70;47.49
40838;BME280;29632;49.168;9.848;2022-08-19T11:21:43;96481.69;;;26.68;47.75
40838;BME280;29632;49.168;9.848;2022-08-19T11:24:22;96490.25;;;26.70;47.61
40838;BME280;29632;49.168;9.848;2022-08-19T11:26:52;96485.69;;;26.65;48.02
40838;BME280;29632;49.168;9.848;2022-08-19T11:29:20;96487.81;;;26.63;47.91
40838;BME280;29632;49.168;9.848;2022-08-19T11:31:48;96477.38;;;26.62;48.31
40838;BME280;29632;49.168;9.848;2022-08-19T11:34:25;96483.53;;;26.62;48.26
40838;BME280;29632;49.168;9.848;2022-08-19T11:36:52;96488.88;;;26.62;48.34
40838;BME280;29632;49.168;9.848;2022-08-19T11:39:22;96481.66;;;26.63;48.01
40838;BME280;29632;49.168;9.848;2022-08-19T11:41:48;96491.28;;;26.64;48.43
40838;BME280;29632;49.168;9.848;2022-08-19T11:44:14;96493.69;;;26.65;48.30
40838;BME280;29632;49.168;9.848;2022-08-19T11:46:41;96497.97;;;26.66;48.24
40838;BME280;29632;49.168;9.848;2022-08-19T11:49:11;96495.28;;;26.66;48.33
40838;BME280;29632;49.168;9.848;2022-08-19T11:51:36;96492.31;;;26.63;48.34
40838;BME280;29632;49.168;9.848;2022-08-19T11:54:05;96493.63;;;26.60;48.43
40838;BME280;29632;49.168;9.848;2022-08-19T11:56:31;96489.28;;;26.54;48.60
40838;BME280;29632;49.168;9.848;2022-08-19T11:58:57;96485.25;;;26.51;48.71
40838;BME280;29632;49.168;9.848;2022-08-19T12:01:25;96487.88;;;26.46;48.96
40838;BME280;29632;49.168;9.848;2022-08-19T12:03:53;96487.09;;;26.46;49.01
40838;BME280;29632;49.168;9.848;2022-08-19T12:06:28;96486.22;;;26.40;49.30
40838;BME280;29632;49.168;9.848;2022-08-19T12:09:03;96495.28;;;26.39;49.28
40838;BME280;29632;49.168;9.848;2022-08-19T12:11:29;96494.47;;;26.38;49.44
40838;BME280;29632;49.168;9.848;2022-08-19T12:13:55;96495.00;;;26.35;49.31
40838;BME280;29632;49.168;9.848;2022-08-19T12:16:26;96484.00;;;26.32;49.55
40838;BME280;29632;49.168;9.848;2022-08-19T12:18:54;96492.53;;;26.29;49.62
40838;BME280;29632;49.168;9.848;2022-08-19T12:21:24;96498.09;;;26.27;49.80
40838;BME280;29632;49.168;9.848;2022-08-19T12:23:54;96497.81;;;26.24;49.88
40838;BME280;29632;49.168;9.848;2022-08-19T12:26:21;96500.16;;;26.20;50.06
40838;BME280;29632;49.168;9.848;2022-08-19T12:28:46;96501.72;;;26.16;50.12
40838;BME280;29632;49.168;9.848;2022-08-19T12:31:14;96508.13;;;26.15;50.27
40838;BME280;29632;49.168;9.848;2022-08-19T12:33:41;96509.44;;;26.12;50.32
40838;BME280;29632;49.168;9.848;2022-08-19T12:36:11;96518.47;;;26.11;50.32
40838;BME280;29632;49.168;9.848;2022-08-19T12:38:38;96507.75;;;26.06;50.54
40838;BME280;29632;49.168;9.848;2022-08-19T12:41:06;96509.88;;;26.04;50.52
40838;BME280;29632;49.168;9.848;2022-08-19T12:43:36;96508.72;;;26.00;50.40
40838;BME280;29632;49.168;9.848;2022-08-19T12:46:04;96506.75;;;25.90;50.63
40838;BME280;29632;49.168;9.848;2022-08-19T12:48:31;96502.38;;;25.84;50.77
40838;BME280;29632;49.168;9.848;2022-08-19T12:50:57;96509.03;;;25.81;51.02
40838;BME280;29632;49.168;9.848;2022-08-19T12:53:23;96503.44;;;25.83;50.89
40838;BME280;29632;49.168;9.848;2022-08-19T12:55:56;96506.38;;;25.81;51.02
40838;BME280;29632;49.168;9.848;2022-08-19T12:58:22;96505.03;;;25.84;51.29
40838;BME280;29632;49.168;9.848;2022-08-19T13:00:48;96506.44;;;25.87;50.87
40838;BME280;29632;49.168;9.848;2022-08-19T13:03:15;96508.84;;;25.88;51.13
40838;BME280;29632;49.168;9.848;2022-08-19T13:05:41;96508.59;;;25.90;51.14
40838;BME280;29632;49.168;9.848;2022-08-19T13:08:08;96508.91;;;25.93;50.89
40838;BME280;29632;49.168;9.848;2022-08-19T13:10:35;96502.53;;;25.94;50.70
40838;BME280;29632;49.168;9.848;2022-08-19T13:13:04;96499.28;;;25.92;50.62
40838;BME280;29632;49.168;9.848;2022-08-19T13:15:38;96488.97;;;25.96;50.42
40838;BME280;29632;49.168;9.848;2022-08-19T13:18:07;96488.72;;;25.97;50.56
40838;BME280;29632;49.168;9.848;2022-08-19T13:20:35;96488.47;;;25.99;50.17